ususleCam  ususleCam


Besuchen Sie unsere anderen Wetter Stationen:

Template documentation
and downloads

And another site



METAR-Meldungen aus der Umgebung

   
LSZH - Zurich-Kloten (a, Switzerland
Entfernung von der Station bis: NW 47 km
Aktualisierung: 03-06-2020 07:20
leicht bewölkt  
leicht bewölkt  
   Wind: variiert 2 km/h
Wind: variiert 2 km/h
Temperatur: 13°C
Taupunkt: 9°C
Luftfeuchte: 77%
Luftdruck: 1010 hPa
Bewölkung: leicht bewölkt
Sichtbarkeit: More than 10 km
Bewölkung: leicht bewölkt 7500 ft
LSZH 030520Z VRB01KT 9999 FEW075 13/09 Q1010 NOSIG
LSZL - Locarno, Switzerland
Entfernung von der Station bis: S 119 km
Aktualisierung: 03-06-2020 07:20
Klar  
Klar  
   Wind: Windstille
Wind: Windstille
Temperatur: 15°C
Taupunkt: 13°C
Luftfeuchte: 88%
Luftdruck: 1010 hPa
Sichtbarkeit: More than 10 km
Bewölkung: Klar
LSZL 030520Z 00000KT CAVOK 15/13 Q1010 RMK BLU
LSZS - Samedan, Switzerland
Entfernung von der Station bis: SO 101 km
Aktualisierung: 03-06-2020 07:20
Klar  
Klar  
   Wind: variiert 2 km/h
Wind: variiert 2 km/h
Temperatur: 2°C
Taupunkt: 2°C
Luftfeuchte: 100%
Luftdruck: 1015 hPa
Sichtbarkeit: More than 10 km
Bewölkung: Klar
LSZS 030520Z AUTO VRB01KT CAVOK 02/02 Q1015
LSME - Emmen, Switzerland
Entfernung von der Station bis: WSW 58 km
Aktualisierung: 03-06-2020 07:20
Klar  
Klar  
   Wind: ONO 4 km/h
Wind: ONO 4 km/h
Temperatur: 14°C
Taupunkt: 9°C
Luftfeuchte: 72%
Luftdruck: 1010 hPa
Sichtbarkeit: More than 10 km
Bewölkung: Klar
LSME 030520Z 06002KT CAVOK 14/09 Q1010 RMK BLU
LSZB - Bern/Belp, Switzerland
Entfernung von der Station bis: WSW 122 km
Aktualisierung: 03-06-2020 07:20
Klar  
Klar  
   Wind: NW 2 km/h
Wind: NW 2 km/h
Temperatur: 12°C
Taupunkt: 8°C
Luftfeuchte: 77%
Luftdruck: 1011 hPa
Sichtbarkeit: More than 10 km
Bewölkung: Klar
LSZB 030520Z AUTO 32001KT CAVOK 12/08 Q1011
LFSB - Bale/Mulhouse, France
Entfernung von der Station bis: WNW 121 km
Aktualisierung: 03-06-2020 07:30
Klar  
Klar  
   Wind: Süden 7 km/h
Wind: Süden 7 km/h
Temperatur: 17°C
Taupunkt: 11°C
Luftfeuchte: 68%
Luftdruck: 1009 hPa
Sichtbarkeit: More than 10 km
Bewölkung: Klar
LFSB 030530Z AUTO 18004KT 150V210 CAVOK 17/11 Q1009 NOSIG

Script entwickelt von  Saratoga-weather.org Angepasst für das Template von  Weerstation Leuven

Von uns verwendete Ausrüstung:

Wetterstation
Davis Vue

Wetterprogramm
Weather Display

Davis Vue

Weather Display